Impacts TAF Board INFO
FOR SITUATIONAL AWARENESS. NOT TO BE USED FOR FLIGHT PLANNING PURPOSES.
IDs:

KIAD - Washington/Dulles In, VA, US

Issued at 1120 UTC 19 Nov 2017
Updated at 1222 UTC 19 Nov 2017
Potential Impact None Slight Moderate High
Time<<20/01Z 20/02Z 20/03Z 20/04Z 20/05Z 20/06Z 20/07Z 20/08Z 20/09Z 20/10Z 20/11Z 20/12Z 20/13Z>>
Type PRVL PRVL PRVL PRVL PRVL PRVL PRVL PRVL PRVL PRVL PRVL PRVL PRVL
VIS >6 >6 >6 >6 >6 >6 >6 >6 >6 >6 >6 >6 >6
CIG -- -- -- -- -- -- -- -- -- -- -- -- --
Cover SCT SCT SCT SCT SCT SCT SCT SCT SCT SCT SCT SCT SCT
FltCat VFR VFR VFR VFR VFR VFR VFR VFR VFR VFR VFR VFR VFR
WX -- -- -- -- -- -- -- -- -- -- -- -- --
WDir 290 280 280 280 280 280 280 280 280 280 280 280 280
WSpd 13 9 9 9 9 9 9 9 9 9 9 9 9
WGst 20 -- -- -- -- -- -- -- -- -- -- -- --

Raw TAF
KIAD 191120Z 1912/2018 29020G42KT P6SM SCT045
  FM191700 30022G35KT P6SM SCT045
  FM192000 30019G28KT P6SM SCT045
  FM192300 29013G20KT P6SM SCT045
  FM200200 28009KT P6SM SCT045


METAR Board
Radar Display
Forecast Discussion

FOR SITUATIONAL AWARENESS. NOT TO BE USED FOR FLIGHT PLANNING PURPOSES.